sensor_id;sensor_type;location;lat;lon;timestamp;pressure;altitude;pressure_sealevel;temperature;humidity
21203;BME280;10759;51.982;9.232;2022-11-22T00:00:52;98384.06;;;1.99;100.00
21203;BME280;10759;51.982;9.232;2022-11-22T00:03:20;98380.53;;;2.00;100.00
21203;BME280;10759;51.982;9.232;2022-11-22T00:05:50;98383.78;;;2.06;100.00
21203;BME280;10759;51.982;9.232;2022-11-22T00:08:18;98271.41;;;1.47;100.00
21203;BME280;10759;51.982;9.232;2022-11-22T00:10:47;98380.56;;;2.23;100.00
21203;BME280;10759;51.982;9.232;2022-11-22T00:13:15;98384.28;;;2.18;100.00
21203;BME280;10759;51.982;9.232;2022-11-22T00:15:43;98385.59;;;2.06;100.00
21203;BME280;10759;51.982;9.232;2022-11-22T00:18:11;98391.19;;;2.22;100.00
21203;BME280;10759;51.982;9.232;2022-11-22T00:20:39;98379.97;;;2.15;100.00
21203;BME280;10759;51.982;9.232;2022-11-22T00:23:08;98372.75;;;2.20;100.00
21203;BME280;10759;51.982;9.232;2022-11-22T00:25:36;98369.25;;;2.20;100.00
21203;BME280;10759;51.982;9.232;2022-11-22T00:28:04;98364.25;;;2.12;100.00
21203;BME280;10759;51.982;9.232;2022-11-22T00:30:32;98374.00;;;2.10;100.00
21203;BME280;10759;51.982;9.232;2022-11-22T00:33:00;98319.59;;;1.79;100.00
21203;BME280;10759;51.982;9.232;2022-11-22T00:35:28;98321.09;;;1.86;100.00
21203;BME280;10759;51.982;9.232;2022-11-22T00:37:56;98328.72;;;1.96;100.00
21203;BME280;10759;51.982;9.232;2022-11-22T00:40:25;98354.53;;;2.12;100.00
21203;BME280;10759;51.982;9.232;2022-11-22T00:42:53;98267.13;;;1.70;100.00
21203;BME280;10759;51.982;9.232;2022-11-22T00:45:21;98354.81;;;2.28;100.00
21203;BME280;10759;51.982;9.232;2022-11-22T00:47:49;98347.06;;;2.24;100.00
21203;BME280;10759;51.982;9.232;2022-11-22T00:50:17;98349.78;;;2.22;100.00
21203;BME280;10759;51.982;9.232;2022-11-22T00:52:45;98337.47;;;2.21;100.00
21203;BME280;10759;51.982;9.232;2022-11-22T00:55:13;98272.75;;;1.84;100.00
21203;BME280;10759;51.982;9.232;2022-11-22T00:57:44;98174.53;;;1.26;100.00
21203;BME280;10759;51.982;9.232;2022-11-22T01:00:13;98334.81;;;2.21;100.00
21203;BME280;10759;51.982;9.232;2022-11-22T01:02:41;98318.78;;;2.26;100.00
21203;BME280;10759;51.982;9.232;2022-11-22T01:05:09;98324.91;;;2.51;100.00
21203;BME280;10759;51.982;9.232;2022-11-22T01:07:37;98299.16;;;2.33;100.00
21203;BME280;10759;51.982;9.232;2022-11-22T01:10:05;98323.25;;;2.49;100.00
21203;BME280;10759;51.982;9.232;2022-11-22T01:12:33;98295.91;;;2.48;100.00
21203;BME280;10759;51.982;9.232;2022-11-22T01:15:04;98309.44;;;2.64;100.00
21203;BME280;10759;51.982;9.232;2022-11-22T01:17:32;98202.13;;;1.89;100.00
21203;BME280;10759;51.982;9.232;2022-11-22T01:20:00;98308.41;;;2.45;100.00
21203;BME280;10759;51.982;9.232;2022-11-22T01:22:28;98306.19;;;2.34;100.00
21203;BME280;10759;51.982;9.232;2022-11-22T01:24:56;98263.84;;;2.12;100.00
21203;BME280;10759;51.982;9.232;2022-11-22T01:27:24;98289.66;;;2.51;100.00
21203;BME280;10759;51.982;9.232;2022-11-22T01:29:52;98304.84;;;2.46;100.00
21203;BME280;10759;51.982;9.232;2022-11-22T01:32:22;98301.22;;;2.48;100.00
21203;BME280;10759;51.982;9.232;2022-11-22T01:34:50;98252.97;;;2.20;100.00
21203;BME280;10759;51.982;9.232;2022-11-22T01:37:18;98291.63;;;2.46;100.00
21203;BME280;10759;51.982;9.232;2022-11-22T01:39:46;98294.03;;;2.52;100.00
21203;BME280;10759;51.982;9.232;2022-11-22T01:42:13;98258.81;;;2.28;100.00
21203;BME280;10759;51.982;9.232;2022-11-22T01:44:42;98287.09;;;2.49;100.00
21203;BME280;10759;51.982;9.232;2022-11-22T01:47:12;98287.94;;;2.73;100.00
21203;BME280;10759;51.982;9.232;2022-11-22T01:49:45;98294.00;;;2.75;100.00
21203;BME280;10759;51.982;9.232;2022-11-22T01:52:16;98281.81;;;2.71;100.00
21203;BME280;10759;51.982;9.232;2022-11-22T01:54:48;98187.91;;;2.17;100.00
21203;BME280;10759;51.982;9.232;2022-11-22T01:57:20;98265.69;;;2.77;100.00
21203;BME280;10759;51.982;9.232;2022-11-22T01:59:52;98278.56;;;2.87;100.00
21203;BME280;10759;51.982;9.232;2022-11-22T02:02:22;98245.13;;;2.64;100.00
21203;BME280;10759;51.982;9.232;2022-11-22T02:04:52;98280.03;;;2.94;100.00
21203;BME280;10759;51.982;9.232;2022-11-22T02:07:25;98266.38;;;2.83;100.00
21203;BME280;10759;51.982;9.232;2022-11-22T02:09:54;98105.38;;;1.87;100.00
21203;BME280;10759;51.982;9.232;2022-11-22T02:12:26;98225.78;;;2.62;100.00
21203;BME280;10759;51.982;9.232;2022-11-22T02:14:56;98281.25;;;3.07;100.00
21203;BME280;10759;51.982;9.232;2022-11-22T02:17:25;98262.91;;;2.80;100.00
21203;BME280;10759;51.982;9.232;2022-11-22T02:19:55;98273.28;;;2.87;100.00
21203;BME280;10759;51.982;9.232;2022-11-22T02:22:29;98280.84;;;2.96;100.00
21203;BME280;10759;51.982;9.232;2022-11-22T02:25:02;98274.25;;;3.06;100.00
21203;BME280;10759;51.982;9.232;2022-11-22T02:27:32;98227.50;;;2.85;100.00
21203;BME280;10759;51.982;9.232;2022-11-22T02:30:00;98269.34;;;2.97;100.00
21203;BME280;10759;51.982;9.232;2022-11-22T02:32:28;98272.78;;;2.99;100.00
21203;BME280;10759;51.982;9.232;2022-11-22T02:34:56;98253.94;;;2.85;100.00
21203;BME280;10759;51.982;9.232;2022-11-22T02:37:27;98262.19;;;2.99;100.00
21203;BME280;10759;51.982;9.232;2022-11-22T02:39:57;98262.16;;;3.00;100.00
21203;BME280;10759;51.982;9.232;2022-11-22T02:42:27;98152.75;;;2.37;100.00
21203;BME280;10759;51.982;9.232;2022-11-22T02:44:58;98264.53;;;3.07;100.00
21203;BME280;10759;51.982;9.232;2022-11-22T02:47:26;98270.00;;;3.02;100.00
21203;BME280;10759;51.982;9.232;2022-11-22T02:49:54;98282.19;;;3.06;100.00
21203;BME280;10759;51.982;9.232;2022-11-22T02:52:22;98239.81;;;2.86;100.00
21203;BME280;10759;51.982;9.232;2022-11-22T02:54:50;98233.31;;;2.93;100.00
21203;BME280;10759;51.982;9.232;2022-11-22T02:57:18;98259.59;;;3.19;100.00
21203;BME280;10759;51.982;9.232;2022-11-22T02:59:46;98188.50;;;2.90;100.00
21203;BME280;10759;51.982;9.232;2022-11-22T03:02:15;98265.22;;;3.32;100.00
21203;BME280;10759;51.982;9.232;2022-11-22T03:04:43;98257.69;;;3.23;100.00
21203;BME280;10759;51.982;9.232;2022-11-22T03:07:11;98262.66;;;3.31;100.00
21203;BME280;10759;51.982;9.232;2022-11-22T03:09:39;98260.81;;;3.33;100.00
21203;BME280;10759;51.982;9.232;2022-11-22T03:12:07;98257.75;;;3.42;100.00
21203;BME280;10759;51.982;9.232;2022-11-22T03:14:35;98256.97;;;3.40;100.00
21203;BME280;10759;51.982;9.232;2022-11-22T03:17:03;98254.34;;;3.40;100.00
21203;BME280;10759;51.982;9.232;2022-11-22T03:19:33;98264.47;;;3.51;100.00
21203;BME280;10759;51.982;9.232;2022-11-22T03:22:01;98253.41;;;3.41;100.00
21203;BME280;10759;51.982;9.232;2022-11-22T03:24:29;98207.31;;;3.04;100.00
21203;BME280;10759;51.982;9.232;2022-11-22T03:26:57;98258.34;;;3.28;100.00
21203;BME280;10759;51.982;9.232;2022-11-22T03:29:25;98260.81;;;3.33;100.00
21203;BME280;10759;51.982;9.232;2022-11-22T03:31:54;98261.53;;;3.36;100.00
21203;BME280;10759;51.982;9.232;2022-11-22T03:34:22;98228.72;;;3.20;100.00
21203;BME280;10759;51.982;9.232;2022-11-22T03:36:52;98261.34;;;3.41;100.00
21203;BME280;10759;51.982;9.232;2022-11-22T03:39:20;98240.72;;;3.27;100.00
21203;BME280;10759;51.982;9.232;2022-11-22T03:41:48;98243.59;;;3.22;100.00
21203;BME280;10759;51.982;9.232;2022-11-22T03:44:16;98212.72;;;3.01;100.00
21203;BME280;10759;51.982;9.232;2022-11-22T03:46:44;98276.56;;;3.36;100.00
21203;BME280;10759;51.982;9.232;2022-11-22T03:49:12;98275.50;;;3.40;100.00
21203;BME280;10759;51.982;9.232;2022-11-22T03:51:40;98278.06;;;3.41;100.00
21203;BME280;10759;51.982;9.232;2022-11-22T03:54:10;98266.59;;;3.42;100.00
21203;BME280;10759;51.982;9.232;2022-11-22T03:56:38;98275.28;;;3.44;100.00
21203;BME280;10759;51.982;9.232;2022-11-22T03:59:06;98273.72;;;3.40;100.00
21203;BME280;10759;51.982;9.232;2022-11-22T04:01:34;98265.97;;;3.36;100.00
21203;BME280;10759;51.982;9.232;2022-11-22T04:04:02;98261.16;;;3.46;100.00
21203;BME280;10759;51.982;9.232;2022-11-22T04:06:30;98241.66;;;3.26;100.00
21203;BME280;10759;51.982;9.232;2022-11-22T04:08:58;98271.13;;;3.39;100.00
21203;BME280;10759;51.982;9.232;2022-11-22T04:11:27;98267.50;;;3.41;100.00
21203;BME280;10759;51.982;9.232;2022-11-22T04:13:55;98173.13;;;2.77;100.00
21203;BME280;10759;51.982;9.232;2022-11-22T04:16:55;98270.22;;;3.40;100.00
21203;BME280;10759;51.982;9.232;2022-11-22T04:19:23;98273.44;;;3.47;100.00
21203;BME280;10759;51.982;9.232;2022-11-22T04:21:51;98275.75;;;3.54;100.00
21203;BME280;10759;51.982;9.232;2022-11-22T04:24:18;98277.66;;;3.52;100.00
21203;BME280;10759;51.982;9.232;2022-11-22T04:27:05;98262.28;;;3.40;100.00
21203;BME280;10759;51.982;9.232;2022-11-22T04:29:33;98295.94;;;3.57;100.00
21203;BME280;10759;51.982;9.232;2022-11-22T04:32:01;98292.41;;;3.58;100.00
21203;BME280;10759;51.982;9.232;2022-11-22T04:34:46;98298.59;;;3.57;100.00
21203;BME280;10759;51.982;9.232;2022-11-22T04:37:14;98311.41;;;3.47;100.00
21203;BME280;10759;51.982;9.232;2022-11-22T04:39:42;98305.16;;;3.48;100.00
21203;BME280;10759;51.982;9.232;2022-11-22T04:42:11;98288.63;;;3.43;100.00
21203;BME280;10759;51.982;9.232;2022-11-22T04:44:57;98307.28;;;3.60;100.00
21203;BME280;10759;51.982;9.232;2022-11-22T04:47:25;98282.38;;;3.44;100.00
21203;BME280;10759;51.982;9.232;2022-11-22T04:50:16;98306.69;;;3.54;100.00
21203;BME280;10759;51.982;9.232;2022-11-22T04:53:01;98223.19;;;3.04;100.00
21203;BME280;10759;51.982;9.232;2022-11-22T04:55:29;98306.81;;;3.51;100.00
21203;BME280;10759;51.982;9.232;2022-11-22T04:57:59;98313.06;;;3.50;100.00
21203;BME280;10759;51.982;9.232;2022-11-22T05:00:27;98317.41;;;3.51;100.00
21203;BME280;10759;51.982;9.232;2022-11-22T05:02:56;98318.34;;;3.50;100.00
21203;BME280;10759;51.982;9.232;2022-11-22T05:05:25;98317.59;;;3.46;100.00
21203;BME280;10759;51.982;9.232;2022-11-22T05:07:54;98311.75;;;3.60;100.00
21203;BME280;10759;51.982;9.232;2022-11-22T05:10:22;98319.53;;;3.63;100.00
21203;BME280;10759;51.982;9.232;2022-11-22T05:12:53;98318.94;;;3.56;100.00
21203;BME280;10759;51.982;9.232;2022-11-22T05:15:22;98271.13;;;3.39;100.00
21203;BME280;10759;51.982;9.232;2022-11-22T05:17:50;98319.53;;;3.63;100.00
21203;BME280;10759;51.982;9.232;2022-11-22T05:20:18;98322.91;;;3.66;100.00
21203;BME280;10759;51.982;9.232;2022-11-22T05:22:46;98228.28;;;3.09;100.00
21203;BME280;10759;51.982;9.232;2022-11-22T05:25:32;98307.25;;;3.62;100.00
21203;BME280;10759;51.982;9.232;2022-11-22T05:28:00;98317.50;;;3.70;100.00
21203;BME280;10759;51.982;9.232;2022-11-22T05:30:29;98316.03;;;3.62;100.00
21203;BME280;10759;51.982;9.232;2022-11-22T05:32:57;98322.81;;;3.70;100.00
21203;BME280;10759;51.982;9.232;2022-11-22T05:35:25;98287.44;;;3.50;100.00
21203;BME280;10759;51.982;9.232;2022-11-22T05:37:54;98321.91;;;3.69;100.00
21203;BME280;10759;51.982;9.232;2022-11-22T05:40:22;98326.25;;;3.72;100.00
21203;BME280;10759;51.982;9.232;2022-11-22T05:42:51;98322.72;;;3.71;100.00
21203;BME280;10759;51.982;9.232;2022-11-22T05:45:19;98198.09;;;2.92;100.00
21203;BME280;10759;51.982;9.232;2022-11-22T05:47:49;98218.22;;;3.17;100.00
21203;BME280;10759;51.982;9.232;2022-11-22T05:50:17;98316.97;;;3.82;100.00
21203;BME280;10759;51.982;9.232;2022-11-22T05:52:52;98278.97;;;3.62;100.00
21203;BME280;10759;51.982;9.232;2022-11-22T05:55:21;98307.75;;;3.70;100.00
21203;BME280;10759;51.982;9.232;2022-11-22T05:57:49;98283.19;;;3.66;100.00
21203;BME280;10759;51.982;9.232;2022-11-22T06:00:17;98282.72;;;3.57;100.00
21203;BME280;10759;51.982;9.232;2022-11-22T06:02:45;98316.03;;;3.83;100.00
21203;BME280;10759;51.982;9.232;2022-11-22T06:05:15;98318.03;;;3.78;100.00
21203;BME280;10759;51.982;9.232;2022-11-22T06:07:43;98328.69;;;3.76;100.00
21203;BME280;10759;51.982;9.232;2022-11-22T06:10:12;98319.06;;;3.74;100.00
21203;BME280;10759;51.982;9.232;2022-11-22T06:12:40;98293.88;;;3.65;100.00
21203;BME280;10759;51.982;9.232;2022-11-22T06:15:09;98325.84;;;3.81;100.00
21203;BME280;10759;51.982;9.232;2022-11-22T06:17:37;98323.38;;;3.76;100.00
21203;BME280;10759;51.982;9.232;2022-11-22T06:20:06;98327.81;;;3.76;100.00
21203;BME280;10759;51.982;9.232;2022-11-22T06:22:36;98302.13;;;3.57;100.00
21203;BME280;10759;51.982;9.232;2022-11-22T06:25:05;98327.16;;;3.71;100.00
21203;BME280;10759;51.982;9.232;2022-11-22T06:27:33;98331.56;;;3.72;100.00
21203;BME280;10759;51.982;9.232;2022-11-22T06:30:01;98343.81;;;3.74;100.00
21203;BME280;10759;51.982;9.232;2022-11-22T06:32:31;98339.28;;;3.76;100.00
21203;BME280;10759;51.982;9.232;2022-11-22T06:35:00;98348.16;;;3.75;100.00
21203;BME280;10759;51.982;9.232;2022-11-22T06:37:28;98340.53;;;3.68;100.00
21203;BME280;10759;51.982;9.232;2022-11-22T06:39:58;98351.94;;;3.70;100.00
21203;BME280;10759;51.982;9.232;2022-11-22T06:42:26;98353.66;;;3.71;100.00
21203;BME280;10759;51.982;9.232;2022-11-22T06:44:54;98342.53;;;3.62;100.00
21203;BME280;10759;51.982;9.232;2022-11-22T06:47:22;98363.25;;;3.73;100.00
21203;BME280;10759;51.982;9.232;2022-11-22T06:49:50;98360.41;;;3.78;100.00
21203;BME280;10759;51.982;9.232;2022-11-22T06:52:18;98370.63;;;3.87;100.00
21203;BME280;10759;51.982;9.232;2022-11-22T06:54:46;98377.50;;;3.91;100.00
21203;BME280;10759;51.982;9.232;2022-11-22T06:57:15;98376.75;;;3.89;100.00
21203;BME280;10759;51.982;9.232;2022-11-22T06:59:43;98166.38;;;2.70;100.00
21203;BME280;10759;51.982;9.232;2022-11-22T07:02:11;98349.44;;;3.87;100.00
21203;BME280;10759;51.982;9.232;2022-11-22T07:04:39;98373.47;;;4.03;100.00
21203;BME280;10759;51.982;9.232;2022-11-22T07:07:27;98377.97;;;4.01;100.00
21203;BME280;10759;51.982;9.232;2022-11-22T07:09:55;98394.63;;;4.04;100.00
21203;BME280;10759;51.982;9.232;2022-11-22T07:12:24;98386.91;;;3.98;100.00
21203;BME280;10759;51.982;9.232;2022-11-22T07:14:52;98403.19;;;4.11;100.00
21203;BME280;10759;51.982;9.232;2022-11-22T07:17:20;98405.88;;;4.09;100.00
21203;BME280;10759;51.982;9.232;2022-11-22T07:19:48;98416.34;;;4.13;100.00
21203;BME280;10759;51.982;9.232;2022-11-22T07:22:16;98411.56;;;4.00;100.00
21203;BME280;10759;51.982;9.232;2022-11-22T07:24:44;98411.00;;;4.14;100.00
21203;BME280;10759;51.982;9.232;2022-11-22T07:27:12;98413.56;;;4.16;100.00
21203;BME280;10759;51.982;9.232;2022-11-22T07:29:41;98416.28;;;4.14;100.00
21203;BME280;10759;51.982;9.232;2022-11-22T07:32:09;98415.63;;;4.09;100.00
21203;BME280;10759;51.982;9.232;2022-11-22T07:34:37;98417.28;;;4.12;100.00
21203;BME280;10759;51.982;9.232;2022-11-22T07:37:05;98411.06;;;4.13;100.00
21203;BME280;10759;51.982;9.232;2022-11-22T07:39:34;98417.97;;;4.17;100.00
21203;BME280;10759;51.982;9.232;2022-11-22T07:42:03;98420.41;;;4.21;100.00
21203;BME280;10759;51.982;9.232;2022-11-22T07:44:30;98423.78;;;4.25;100.00
21203;BME280;10759;51.982;9.232;2022-11-22T07:47:00;98412.31;;;4.24;100.00
21203;BME280;10759;51.982;9.232;2022-11-22T07:49:28;98425.84;;;4.39;100.00
21203;BME280;10759;51.982;9.232;2022-11-22T07:51:56;98420.69;;;4.36;100.00
21203;BME280;10759;51.982;9.232;2022-11-22T07:54:25;98282.72;;;3.57;100.00
21203;BME280;10759;51.982;9.232;2022-11-22T07:56:53;98434.13;;;4.51;100.00
21203;BME280;10759;51.982;9.232;2022-11-22T07:59:21;98429.88;;;4.47;100.00
21203;BME280;10759;51.982;9.232;2022-11-22T08:01:49;98446.91;;;4.62;100.00
21203;BME280;10759;51.982;9.232;2022-11-22T08:04:18;98421.25;;;4.42;100.00
21203;BME280;10759;51.982;9.232;2022-11-22T08:06:46;98460.09;;;4.64;100.00
21203;BME280;10759;51.982;9.232;2022-11-22T08:09:14;98431.47;;;4.51;100.00
21203;BME280;10759;51.982;9.232;2022-11-22T08:11:42;98456.25;;;4.71;100.00
21203;BME280;10759;51.982;9.232;2022-11-22T08:14:10;98362.94;;;4.22;100.00
21203;BME280;10759;51.982;9.232;2022-11-22T08:16:38;98436.28;;;4.62;100.00
21203;BME280;10759;51.982;9.232;2022-11-22T08:19:06;98424.56;;;4.68;100.00
21203;BME280;10759;51.982;9.232;2022-11-22T08:21:35;98455.41;;;4.89;100.00
21203;BME280;10759;51.982;9.232;2022-11-22T08:24:04;98455.19;;;4.94;100.00
21203;BME280;10759;51.982;9.232;2022-11-22T08:26:33;98457.59;;;5.00;100.00
21203;BME280;10759;51.982;9.232;2022-11-22T08:29:02;98463.75;;;5.01;100.00
21203;BME280;10759;51.982;9.232;2022-11-22T08:31:36;98456.28;;;5.09;100.00
21203;BME280;10759;51.982;9.232;2022-11-22T08:34:05;98423.44;;;4.92;100.00
21203;BME280;10759;51.982;9.232;2022-11-22T08:36:34;98459.31;;;5.20;100.00
21203;BME280;10759;51.982;9.232;2022-11-22T08:39:02;98289.25;;;4.09;100.00
21203;BME280;10759;51.982;9.232;2022-11-22T08:41:30;98460.19;;;5.21;100.00
21203;BME280;10759;51.982;9.232;2022-11-22T08:43:59;98469.22;;;5.16;100.00
21203;BME280;10759;51.982;9.232;2022-11-22T08:46:27;98463.84;;;5.18;100.00
21203;BME280;10759;51.982;9.232;2022-11-22T08:48:55;98468.94;;;5.23;100.00
21203;BME280;10759;51.982;9.232;2022-11-22T08:51:23;98467.94;;;5.25;100.00
21203;BME280;10759;51.982;9.232;2022-11-22T08:53:52;98472.09;;;5.31;100.00
21203;BME280;10759;51.982;9.232;2022-11-22T08:56:20;98454.59;;;5.27;100.00
21203;BME280;10759;51.982;9.232;2022-11-22T08:58:49;98479.00;;;5.54;100.00
21203;BME280;10759;51.982;9.232;2022-11-22T09:01:17;98410.38;;;5.07;100.00
21203;BME280;10759;51.982;9.232;2022-11-22T09:03:47;98476.03;;;5.60;100.00
21203;BME280;10759;51.982;9.232;2022-11-22T09:06:16;98483.16;;;5.59;100.00
21203;BME280;10759;51.982;9.232;2022-11-22T09:09:06;98356.50;;;4.86;100.00
21203;BME280;10759;51.982;9.232;2022-11-22T09:11:54;98473.09;;;5.47;100.00
21203;BME280;10759;51.982;9.232;2022-11-22T09:14:22;98493.59;;;5.81;100.00
21203;BME280;10759;51.982;9.232;2022-11-22T09:16:50;98399.75;;;5.26;100.00
21203;BME280;10759;51.982;9.232;2022-11-22T09:19:18;98495.91;;;5.89;100.00
21203;BME280;10759;51.982;9.232;2022-11-22T09:21:46;98509.53;;;6.00;100.00
21203;BME280;10759;51.982;9.232;2022-11-22T09:24:15;98499.41;;;5.90;100.00
21203;BME280;10759;51.982;9.232;2022-11-22T09:26:43;98502.72;;;5.95;100.00
21203;BME280;10759;51.982;9.232;2022-11-22T09:29:11;98507.56;;;5.68;100.00
21203;BME280;10759;51.982;9.232;2022-11-22T09:31:41;98519.47;;;5.78;100.00
21203;BME280;10759;51.982;9.232;2022-11-22T09:34:09;98477.69;;;5.44;100.00
21203;BME280;10759;51.982;9.232;2022-11-22T09:36:37;98513.03;;;5.65;100.00
21203;BME280;10759;51.982;9.232;2022-11-22T09:39:05;98512.66;;;5.72;100.00
21203;BME280;10759;51.982;9.232;2022-11-22T09:41:50;98513.44;;;5.74;100.00
21203;BME280;10759;51.982;9.232;2022-11-22T09:44:31;98511.78;;;5.91;100.00
21203;BME280;10759;51.982;9.232;2022-11-22T09:47:06;98503.56;;;6.14;100.00
21203;BME280;10759;51.982;9.232;2022-11-22T09:49:42;98504.50;;;6.13;100.00
21203;BME280;10759;51.982;9.232;2022-11-22T09:52:18;98502.47;;;6.18;100.00
21203;BME280;10759;51.982;9.232;2022-11-22T09:54:54;98499.81;;;6.18;100.00
21203;BME280;10759;51.982;9.232;2022-11-22T09:57:27;98500.66;;;6.19;100.00
21203;BME280;10759;51.982;9.232;2022-11-22T10:00:02;98485.94;;;6.12;100.00
21203;BME280;10759;51.982;9.232;2022-11-22T10:02:41;98498.25;;;6.32;100.00
21203;BME280;10759;51.982;9.232;2022-11-22T10:05:29;98501.41;;;6.40;100.00
21203;BME280;10759;51.982;9.232;2022-11-22T10:08:03;98493.31;;;6.41;100.00
21203;BME280;10759;51.982;9.232;2022-11-22T10:10:38;98493.47;;;6.56;100.00
21203;BME280;10759;51.982;9.232;2022-11-22T10:13:14;98425.81;;;6.27;100.00
21203;BME280;10759;51.982;9.232;2022-11-22T10:15:48;98446.06;;;6.47;100.00
21203;BME280;10759;51.982;9.232;2022-11-22T10:18:24;98483.78;;;6.72;100.00
21203;BME280;10759;51.982;9.232;2022-11-22T10:20:57;98436.44;;;6.44;100.00
21203;BME280;10759;51.982;9.232;2022-11-22T10:23:26;98480.94;;;6.75;100.00
21203;BME280;10759;51.982;9.232;2022-11-22T10:25:56;98482.59;;;6.78;100.00
21203;BME280;10759;51.982;9.232;2022-11-22T10:28:33;98481.31;;;6.85;100.00
21203;BME280;10759;51.982;9.232;2022-11-22T10:31:06;98449.84;;;6.76;100.00
21203;BME280;10759;51.982;9.232;2022-11-22T10:33:38;98475.53;;;6.94;100.00
21203;BME280;10759;51.982;9.232;2022-11-22T10:36:23;98475.53;;;6.94;100.00
21203;BME280;10759;51.982;9.232;2022-11-22T10:39:08;98476.69;;;6.88;100.00
21203;BME280;10759;51.982;9.232;2022-11-22T10:41:53;98472.34;;;7.03;100.00
21203;BME280;10759;51.982;9.232;2022-11-22T10:44:37;98472.59;;;6.99;100.00
21203;BME280;10759;51.982;9.232;2022-11-22T10:47:13;98453.50;;;6.91;100.00
21203;BME280;10759;51.982;9.232;2022-11-22T10:49:54;98468.75;;;7.04;100.00
21203;BME280;10759;51.982;9.232;2022-11-22T10:52:27;98475.31;;;7.15;100.00
21203;BME280;10759;51.982;9.232;2022-11-22T10:55:04;98462.84;;;7.15;100.00
21203;BME280;10759;51.982;9.232;2022-11-22T10:57:43;98447.34;;;7.06;100.00
21203;BME280;10759;51.982;9.232;2022-11-22T11:00:19;98460.00;;;7.18;100.00
21203;BME280;10759;51.982;9.232;2022-11-22T11:03:00;98465.78;;;7.26;100.00
21203;BME280;10759;51.982;9.232;2022-11-22T11:05:34;98421.59;;;7.06;100.00
21203;BME280;10759;51.982;9.232;2022-11-22T11:08:38;98463.56;;;7.35;100.00
21203;BME280;10759;51.982;9.232;2022-11-22T11:11:27;98453.00;;;7.49;100.00
21203;BME280;10759;51.982;9.232;2022-11-22T11:14:00;98448.69;;;7.62;100.00
21203;BME280;10759;51.982;9.232;2022-11-22T11:16:35;98440.84;;;7.75;100.00
21203;BME280;10759;51.982;9.232;2022-11-22T11:19:14;98438.19;;;7.75;100.00
21203;BME280;10759;51.982;9.232;2022-11-22T11:21:43;98443.41;;;7.92;100.00
21203;BME280;10759;51.982;9.232;2022-11-22T11:24:13;98447.72;;;7.79;100.00
21203;BME280;10759;51.982;9.232;2022-11-22T11:26:43;98454.63;;;7.83;100.00
21203;BME280;10759;51.982;9.232;2022-11-22T11:29:42;98451.69;;;7.88;100.00
21203;BME280;10759;51.982;9.232;2022-11-22T11:32:14;98465.09;;;7.86;100.00
21203;BME280;10759;51.982;9.232;2022-11-22T11:34:51;98459.78;;;7.70;100.00
21203;BME280;10759;51.982;9.232;2022-11-22T11:37:26;98432.59;;;7.48;100.00
21203;BME280;10759;51.982;9.232;2022-11-22T11:39:54;98454.34;;;7.72;100.00
21203;BME280;10759;51.982;9.232;2022-11-22T11:42:25;98460.28;;;7.77;100.00
21203;BME280;10759;51.982;9.232;2022-11-22T11:45:18;98462.53;;;7.69;100.00
21203;BME280;10759;51.982;9.232;2022-11-22T11:47:48;98458.91;;;7.70;100.00
21203;BME280;10759;51.982;9.232;2022-11-22T11:50:17;98461.50;;;7.71;99.52
21203;BME280;10759;51.982;9.232;2022-11-22T11:52:52;98468.06;;;7.66;100.00
21203;BME280;10759;51.982;9.232;2022-11-22T11:55:20;98452.38;;;7.60;100.00
21203;BME280;10759;51.982;9.232;2022-11-22T11:57:50;98466.91;;;7.70;100.00
21203;BME280;10759;51.982;9.232;2022-11-22T12:00:19;98461.16;;;7.62;100.00
21203;BME280;10759;51.982;9.232;2022-11-22T12:02:57;98469.09;;;7.63;100.00
21203;BME280;10759;51.982;9.232;2022-11-22T12:05:28;98470.78;;;7.64;100.00
21203;BME280;10759;51.982;9.232;2022-11-22T12:07:57;98472.31;;;7.52;100.00
21203;BME280;10759;51.982;9.232;2022-11-22T12:10:29;98365.09;;;6.84;100.00
21203;BME280;10759;51.982;9.232;2022-11-22T12:13:01;98470.53;;;7.37;100.00
21203;BME280;10759;51.982;9.232;2022-11-22T12:15:40;98469.06;;;7.31;100.00
21203;BME280;10759;51.982;9.232;2022-11-22T12:18:25;98482.38;;;7.31;100.00
21203;BME280;10759;51.982;9.232;2022-11-22T12:21:01;98479.53;;;7.35;100.00
21203;BME280;10759;51.982;9.232;2022-11-22T12:23:35;98482.28;;;7.33;100.00
21203;BME280;10759;51.982;9.232;2022-11-22T12:26:04;98475.53;;;7.43;100.00
21203;BME280;10759;51.982;9.232;2022-11-22T12:28:33;98480.56;;;7.48;100.00
21203;BME280;10759;51.982;9.232;2022-11-22T12:31:04;98487.13;;;7.42;100.00
21203;BME280;10759;51.982;9.232;2022-11-22T12:33:43;98411.38;;;7.15;100.00
21203;BME280;10759;51.982;9.232;2022-11-22T12:36:16;98480.31;;;7.52;100.00
21203;BME280;10759;51.982;9.232;2022-11-22T12:38:49;98465.38;;;7.50;100.00
21203;BME280;10759;51.982;9.232;2022-11-22T12:41:22;98453.44;;;7.41;100.00
21203;BME280;10759;51.982;9.232;2022-11-22T12:43:55;98452.13;;;7.32;100.00
21203;BME280;10759;51.982;9.232;2022-11-22T12:46:28;98469.75;;;7.35;100.00
21203;BME280;10759;51.982;9.232;2022-11-22T12:49:02;98469.50;;;7.40;100.00
21203;BME280;10759;51.982;9.232;2022-11-22T12:51:38;98469.41;;;7.41;100.00
21203;BME280;10759;51.982;9.232;2022-11-22T12:54:12;98452.03;;;7.34;100.00
21203;BME280;10759;51.982;9.232;2022-11-22T12:56:46;98464.88;;;7.43;100.00
21203;BME280;10759;51.982;9.232;2022-11-22T12:59:23;98394.69;;;6.95;100.00
21203;BME280;10759;51.982;9.232;2022-11-22T13:02:01;98474.81;;;7.40;100.00
21203;BME280;10759;51.982;9.232;2022-11-22T13:04:41;98471.47;;;7.36;100.00
21203;BME280;10759;51.982;9.232;2022-11-22T13:07:16;98472.88;;;7.43;100.00
21203;BME280;10759;51.982;9.232;2022-11-22T13:09:50;98461.25;;;7.44;100.00
21203;BME280;10759;51.982;9.232;2022-11-22T13:12:27;98455.56;;;7.35;100.00
21203;BME280;10759;51.982;9.232;2022-11-22T13:14:57;98463.41;;;7.53;100.00
21203;BME280;10759;51.982;9.232;2022-11-22T13:17:31;98466.66;;;7.43;100.00
21203;BME280;10759;51.982;9.232;2022-11-22T13:20:04;98467.19;;;7.49;100.00